createdAt,value
2023-03-16T00:02:28.395Z,0.56
2023-03-16T00:06:28.397Z,0.57
2023-03-16T00:10:28.630Z,0.58
2023-03-16T00:14:28.268Z,0.56
2023-03-16T00:18:28.277Z,0.60
2023-03-16T00:22:28.251Z,0.57
2023-03-16T00:26:28.309Z,0.58
2023-03-16T00:30:28.648Z,0.60
2023-03-16T00:34:28.327Z,0.58
2023-03-16T00:38:28.830Z,0.59
2023-03-16T00:42:28.329Z,0.61
2023-03-16T00:46:28.364Z,0.58
2023-03-16T00:50:28.671Z,0.59
2023-03-16T00:54:28.815Z,0.58
2023-03-16T00:58:28.403Z,0.59
2023-03-16T01:02:28.460Z,0.61
2023-03-16T01:06:28.439Z,0.59
2023-03-16T01:10:28.834Z,0.58
2023-03-16T01:14:28.585Z,0.61
2023-03-16T01:18:28.566Z,0.61
2023-03-16T01:22:28.620Z,0.57
2023-03-16T01:26:28.673Z,0.61
2023-03-16T01:30:29.173Z,0.60
2023-03-16T01:34:28.832Z,0.61
2023-03-16T01:38:28.716Z,0.63
2023-03-16T01:42:29.304Z,0.60
2023-03-16T01:46:29.384Z,0.63
2023-03-16T01:50:29.251Z,0.61
2023-03-16T01:54:28.818Z,0.63
2023-03-16T01:58:29.295Z,0.63
2023-03-16T02:02:28.903Z,0.64
2023-03-16T02:06:28.936Z,0.64
2023-03-16T02:10:29.494Z,0.62
2023-03-16T02:14:29.015Z,0.63
2023-03-16T02:18:29.061Z,0.64
2023-03-16T02:22:29.230Z,0.67
2023-03-16T02:26:29.243Z,0.65
2023-03-16T02:30:29.752Z,0.65
2023-03-16T02:34:29.257Z,0.68
2023-03-16T02:38:29.350Z,0.68
2023-03-16T02:42:29.817Z,0.68
2023-03-16T02:46:29.525Z,0.67
2023-03-16T02:50:29.775Z,0.65
2023-03-16T02:54:30.307Z,0.67
2023-03-16T02:58:29.582Z,0.70
2023-03-16T03:02:29.610Z,0.68
2023-03-16T03:06:29.613Z,0.73
2023-03-16T03:10:29.970Z,0.71
2023-03-16T03:14:29.698Z,0.71
2023-03-16T03:18:29.773Z,0.72
2023-03-16T03:22:29.808Z,0.72
2023-03-16T03:26:29.858Z,0.73
2023-03-16T03:30:30.139Z,0.72
2023-03-16T03:34:30.854Z,0.70
2023-03-16T03:38:29.976Z,0.69
2023-03-16T03:42:29.922Z,0.75
2023-03-16T03:46:30.206Z,0.75
2023-03-16T03:50:30.302Z,0.73
2023-03-16T03:54:29.994Z,0.75
2023-03-16T03:58:30.888Z,0.73
2023-03-16T04:02:30.288Z,0.75
2023-03-16T04:06:30.164Z,0.76
2023-03-16T04:10:30.517Z,0.75
2023-03-16T04:14:30.299Z,0.75
2023-03-16T04:18:30.278Z,0.73
2023-03-16T04:22:30.300Z,0.74
2023-03-16T04:26:30.340Z,0.77
2023-03-16T04:30:30.756Z,0.76
2023-03-16T04:34:30.472Z,0.78
2023-03-16T04:38:30.554Z,0.79
2023-03-16T04:42:30.612Z,0.76
2023-03-16T04:46:30.656Z,0.80
2023-03-16T04:50:30.855Z,0.79
2023-03-16T04:54:30.762Z,0.77
2023-03-16T04:58:30.836Z,0.75
2023-03-16T05:02:30.873Z,0.77
2023-03-16T05:06:30.995Z,0.77
2023-03-16T05:10:31.017Z,0.80
2023-03-16T05:14:31.074Z,0.82
2023-03-16T05:18:31.196Z,0.76
2023-03-16T05:22:31.282Z,0.81
2023-03-16T05:26:31.310Z,0.80
2023-03-16T05:30:31.407Z,0.80
2023-03-16T05:34:31.391Z,0.78
2023-03-16T05:38:31.476Z,0.81
2023-03-16T05:42:31.441Z,0.78
2023-03-16T05:46:31.542Z,0.80
2023-03-16T05:50:31.594Z,0.77
2023-03-16T05:54:31.674Z,0.81
2023-03-16T05:58:31.653Z,0.81
2023-03-16T06:02:31.725Z,0.78
2023-03-16T06:06:31.745Z,0.77
2023-03-16T06:10:31.823Z,0.80
2023-03-16T06:14:31.943Z,0.78
2023-03-16T06:18:32.036Z,0.81
2023-03-16T06:22:32.017Z,0.80
2023-03-16T06:26:32.011Z,0.82
2023-03-16T06:30:31.978Z,0.94
2023-03-16T06:34:32.745Z,0.88
2023-03-16T06:38:32.156Z,0.97
2023-03-16T06:42:32.270Z,0.80
2023-03-16T06:46:32.461Z,0.70
2023-03-16T06:50:32.505Z,0.68
2023-03-16T06:54:32.647Z,0.68
2023-03-16T06:58:32.449Z,0.71
2023-03-16T07:02:32.712Z,0.70
2023-03-16T07:06:32.563Z,0.77
2023-03-16T07:10:32.644Z,0.77
2023-03-16T07:14:32.503Z,0.80
2023-03-16T07:18:32.304Z,0.82
2023-03-16T07:22:32.316Z,0.78
2023-03-16T07:26:32.215Z,0.80
2023-03-16T07:30:32.224Z,0.89
2023-03-16T07:34:32.183Z,0.86
2023-03-16T07:38:32.111Z,0.84
2023-03-16T07:42:32.646Z,0.92
2023-03-16T07:46:33.117Z,0.91
2023-03-16T07:50:32.121Z,0.86
2023-03-16T07:54:32.494Z,0.84
2023-03-16T07:58:31.963Z,0.83
2023-03-16T08:02:32.582Z,0.83
2023-03-16T08:06:32.500Z,0.79
2023-03-16T08:10:32.353Z,0.82
2023-03-16T08:14:31.818Z,0.83
2023-03-16T08:18:31.834Z,0.84
2023-03-16T08:22:31.762Z,0.84
2023-03-16T08:26:31.630Z,0.79
2023-03-16T08:30:32.051Z,0.79
2023-03-16T08:34:32.475Z,0.66
2023-03-16T08:38:33.913Z,0.73
2023-03-16T08:42:32.539Z,0.75
2023-03-16T08:46:31.644Z,0.78
2023-03-16T08:50:31.696Z,0.77
2023-03-16T08:54:31.412Z,0.80
2023-03-16T08:58:31.327Z,0.78
2023-03-16T09:02:31.271Z,0.81
2023-03-16T09:06:31.266Z,0.82
2023-03-16T09:10:31.683Z,0.86
2023-03-16T09:14:33.555Z,0.93
2023-03-16T09:18:31.489Z,0.89
2023-03-16T09:22:31.244Z,1.30
2023-03-16T09:26:32.294Z,1.03
2023-03-16T09:30:31.956Z,1.03
2023-03-16T09:34:32.738Z,1.09
2023-03-16T09:38:31.227Z,1.12
2023-03-16T09:42:31.522Z,1.04
2023-03-16T09:46:32.080Z,1.31
2023-03-16T09:50:47.363Z,1.22
2023-03-16T09:54:35.216Z,1.16
2023-03-16T09:58:32.054Z,1.18
2023-03-16T10:02:35.365Z,1.23
2023-03-16T10:06:31.762Z,1.16
2023-03-16T10:10:31.427Z,1.13
2023-03-16T10:14:32.089Z,1.16
2023-03-16T10:18:31.176Z,1.21
2023-03-16T10:22:31.195Z,1.18
2023-03-16T10:26:31.245Z,1.21
2023-03-16T10:30:31.585Z,1.25
2023-03-16T10:34:31.061Z,1.30
2023-03-16T10:38:34.152Z,1.31
2023-03-16T10:42:31.078Z,1.38
2023-03-16T10:46:31.340Z,1.52
2023-03-16T10:50:31.377Z,1.63
2023-03-16T10:54:31.154Z,2.17
2023-03-16T10:58:30.947Z,2.51
2023-03-16T11:02:30.821Z,2.11
2023-03-16T11:06:30.902Z,1.93
2023-03-16T11:10:31.410Z,1.85
2023-03-16T11:14:30.657Z,1.75
2023-03-16T11:18:31.094Z,1.66
2023-03-16T11:22:31.173Z,1.67
2023-03-16T11:26:30.883Z,1.70
2023-03-16T11:30:31.107Z,1.63
2023-03-16T11:34:30.454Z,1.54
2023-03-16T11:38:30.583Z,1.67
2023-03-16T11:42:30.399Z,1.88
2023-03-16T11:46:30.456Z,2.26
2023-03-16T11:50:30.342Z,2.72
2023-03-16T11:54:30.577Z,2.87
2023-03-16T11:58:30.752Z,2.94
2023-03-16T12:02:31.284Z,2.75
2023-03-16T12:06:30.913Z,2.74
2023-03-16T12:10:30.802Z,2.66
2023-03-16T12:14:31.153Z,2.54
2023-03-16T12:18:31.075Z,2.60
2023-03-16T12:22:31.198Z,2.47
2023-03-16T12:26:31.622Z,2.73
2023-03-16T12:30:30.740Z,3.25
2023-03-16T12:34:30.701Z,3.07
2023-03-16T12:38:30.575Z,2.62
2023-03-16T12:42:30.738Z,2.47
2023-03-16T12:46:30.677Z,2.53
2023-03-16T12:50:30.544Z,2.28
2023-03-16T12:54:30.429Z,2.09
2023-03-16T12:58:30.604Z,2.04
2023-03-16T13:02:30.459Z,2.03
2023-03-16T13:06:30.446Z,2.12
2023-03-16T13:10:30.664Z,2.11
2023-03-16T13:14:30.335Z,2.18
2023-03-16T13:18:30.300Z,1.91
2023-03-16T13:22:30.217Z,1.89
2023-03-16T13:26:30.356Z,1.77
2023-03-16T13:30:30.843Z,1.82
2023-03-16T13:34:30.704Z,2.03
2023-03-16T13:38:31.569Z,2.02
2023-03-16T13:42:30.940Z,1.99
2023-03-16T13:46:31.030Z,1.92
2023-03-16T13:50:31.429Z,1.89
2023-03-16T13:54:31.230Z,1.77
2023-03-16T13:58:32.131Z,1.70
2023-03-16T14:02:31.256Z,1.98
2023-03-16T14:06:31.371Z,1.97
2023-03-16T14:10:31.379Z,2.02
2023-03-16T14:14:32.066Z,1.99
2023-03-16T14:18:31.571Z,1.92
2023-03-16T14:22:31.647Z,1.99
2023-03-16T14:26:31.694Z,1.98
2023-03-16T14:30:31.810Z,1.89
2023-03-16T14:34:32.600Z,1.91
2023-03-16T14:38:32.257Z,2.07
2023-03-16T14:42:32.398Z,2.14
2023-03-16T14:46:32.489Z,2.22
2023-03-16T14:50:32.562Z,2.36
2023-03-16T14:54:32.626Z,2.45
2023-03-16T14:58:32.756Z,2.31
2023-03-16T15:02:32.901Z,2.14
2023-03-16T15:06:33.039Z,2.13
2023-03-16T15:10:33.123Z,2.19
2023-03-16T15:14:33.288Z,2.12
2023-03-16T15:18:33.333Z,2.31
2023-03-16T15:22:33.657Z,2.11
2023-03-16T15:26:33.757Z,1.93
2023-03-16T15:30:33.997Z,1.94
2023-03-16T15:34:34.121Z,2.00
2023-03-16T15:38:34.657Z,2.08
2023-03-16T15:42:35.132Z,2.06
2023-03-16T15:46:34.641Z,2.14
2023-03-16T15:50:35.123Z,2.04
2023-03-16T15:54:35.152Z,2.04
2023-03-16T15:58:35.186Z,2.08
2023-03-16T16:02:35.205Z,1.95
2023-03-16T16:06:35.313Z,1.96
2023-03-16T16:10:35.398Z,1.85
2023-03-16T16:14:35.415Z,1.84
2023-03-16T16:18:35.594Z,1.86
2023-03-16T16:22:38.583Z,1.75
2023-03-16T16:26:49.098Z,1.80
2023-03-16T16:30:36.639Z,1.80
2023-03-16T16:34:35.652Z,1.72
2023-03-16T16:38:35.560Z,1.75
2023-03-16T16:42:35.547Z,1.73
2023-03-16T16:46:35.520Z,1.74
2023-03-16T16:50:39.673Z,1.73
2023-03-16T16:54:35.419Z,1.70
2023-03-16T16:58:35.389Z,1.74
2023-03-16T17:02:38.022Z,1.75
2023-03-16T17:06:35.388Z,1.70
2023-03-16T17:10:35.259Z,1.77
2023-03-16T17:14:35.256Z,1.64
2023-03-16T17:18:35.212Z,1.65
2023-03-16T17:22:35.170Z,1.60
2023-03-16T17:26:35.250Z,1.69
2023-03-16T17:30:35.141Z,1.68
2023-03-16T17:34:35.034Z,1.63
2023-03-16T17:38:35.012Z,1.61
2023-03-16T17:42:34.990Z,1.63
2023-03-16T17:46:35.001Z,1.61
2023-03-16T17:50:34.880Z,1.62
2023-03-16T17:54:34.906Z,1.56
2023-03-16T17:58:35.189Z,1.54
2023-03-16T18:02:35.163Z,1.55
2023-03-16T18:06:34.723Z,1.58
2023-03-16T18:10:34.755Z,1.50
2023-03-16T18:14:34.706Z,1.42
2023-03-16T18:18:34.662Z,1.49
2023-03-16T18:22:34.603Z,1.50
2023-03-16T18:26:34.581Z,1.43
2023-03-16T18:30:34.716Z,1.48
2023-03-16T18:34:34.525Z,1.48
2023-03-16T18:38:34.447Z,1.48
2023-03-16T18:42:34.413Z,1.45
2023-03-16T18:46:34.566Z,1.46
2023-03-16T18:50:34.358Z,1.49
2023-03-16T18:54:34.279Z,1.44
2023-03-16T18:58:34.313Z,1.49
2023-03-16T19:02:34.243Z,1.44
2023-03-16T19:06:34.204Z,1.42
2023-03-16T19:10:34.163Z,1.52
2023-03-16T19:14:34.145Z,1.56
2023-03-16T19:18:34.161Z,1.54
2023-03-16T19:22:34.082Z,1.49
2023-03-16T19:26:34.055Z,1.46
2023-03-16T19:30:33.989Z,1.48
2023-03-16T19:34:34.204Z,1.43
2023-03-16T19:38:33.979Z,1.55
2023-03-16T19:42:34.099Z,1.50
2023-03-16T19:46:34.129Z,1.49
2023-03-16T19:50:34.114Z,1.46
2023-03-16T19:54:34.276Z,1.50
2023-03-16T19:58:34.248Z,1.44
2023-03-16T20:02:35.189Z,1.43
2023-03-16T20:06:34.401Z,1.47
2023-03-16T20:10:34.374Z,1.46
2023-03-16T20:14:34.445Z,1.45
2023-03-16T20:18:34.496Z,1.42
2023-03-16T20:22:34.530Z,1.39
2023-03-16T20:26:34.687Z,1.39
2023-03-16T20:30:34.771Z,1.33
2023-03-16T20:34:34.774Z,1.40
2023-03-16T20:38:34.893Z,1.41
2023-03-16T20:42:34.916Z,1.31
2023-03-16T20:46:35.026Z,1.33
2023-03-16T20:50:35.076Z,1.34
2023-03-16T20:54:35.184Z,1.22
2023-03-16T20:58:35.337Z,1.29
2023-03-16T21:02:35.398Z,1.29
2023-03-16T21:06:35.484Z,1.33
2023-03-16T21:10:35.539Z,1.25
2023-03-16T21:14:35.665Z,1.25
2023-03-16T21:18:35.789Z,1.22
2023-03-16T21:22:35.757Z,1.29
2023-03-16T21:26:37.719Z,1.19
2023-03-16T21:30:35.951Z,1.19
2023-03-16T21:34:36.026Z,1.21
2023-03-16T21:38:36.156Z,1.31
2023-03-16T21:42:37.303Z,1.23
2023-03-16T21:46:36.508Z,1.17
2023-03-16T21:50:36.587Z,1.23
2023-03-16T21:54:36.716Z,1.18
2023-03-16T21:58:36.890Z,1.23
2023-03-16T22:02:37.192Z,1.21
2023-03-16T22:06:37.245Z,1.18
2023-03-16T22:10:37.390Z,1.23
2023-03-16T22:14:37.492Z,1.29
2023-03-16T22:18:37.619Z,1.17
2023-03-16T22:22:37.732Z,1.23
2023-03-16T22:26:37.916Z,1.18
2023-03-16T22:30:37.995Z,1.20
2023-03-16T22:34:38.073Z,1.18
2023-03-16T22:38:38.308Z,1.20
2023-03-16T22:42:38.318Z,1.16
2023-03-16T22:46:38.476Z,1.18
2023-03-16T22:50:38.670Z,1.17
2023-03-16T22:54:38.718Z,1.16
2023-03-16T22:58:39.309Z,1.20
2023-03-16T23:02:39.041Z,1.16
2023-03-16T23:06:39.194Z,1.19
2023-03-16T23:10:39.300Z,1.16
2023-03-16T23:14:39.471Z,1.17
2023-03-16T23:18:39.580Z,1.15
2023-03-16T23:22:39.683Z,1.18
2023-03-16T23:26:39.929Z,1.13
2023-03-16T23:30:40.176Z,1.17
2023-03-16T23:34:40.181Z,1.23
2023-03-16T23:38:40.361Z,1.19
2023-03-16T23:42:40.776Z,1.19
2023-03-16T23:46:40.709Z,1.21
2023-03-16T23:50:40.786Z,1.22
2023-03-16T23:54:40.893Z,1.22
2023-03-16T23:58:41.144Z,1.19
